createdAt,value
2019-01-23T00:01:31.219Z,38.10
2019-01-23T00:04:12.888Z,35.73
2019-01-23T00:06:55.231Z,34.13
2019-01-23T00:09:37.142Z,37.40
2019-01-23T00:12:19.420Z,35.87
2019-01-23T00:15:03.268Z,34.30
2019-01-23T00:17:44.809Z,32.53
2019-01-23T00:20:28.050Z,32.93
2019-01-23T00:23:10.113Z,33.90
2019-01-23T00:25:51.818Z,30.10
2019-01-23T00:28:33.485Z,32.67
2019-01-23T00:31:16.736Z,30.17
2019-01-23T00:33:59.022Z,31.77
2019-01-23T00:36:41.190Z,34.33
2019-01-23T00:39:26.256Z,31.67
2019-01-23T00:42:08.273Z,32.50
2019-01-23T00:44:50.712Z,31.27
2019-01-23T00:47:32.910Z,33.80
2019-01-23T00:50:14.694Z,35.10
2019-01-23T00:52:56.902Z,33.23
2019-01-23T00:55:39.188Z,35.17
2019-01-23T00:58:21.340Z,31.57
2019-01-23T01:01:03.392Z,33.90
2019-01-23T01:03:45.344Z,37.10
2019-01-23T01:06:27.271Z,35.67
2019-01-23T01:09:09.711Z,38.90
2019-01-23T01:11:51.909Z,35.17
2019-01-23T01:14:37.463Z,35.27
2019-01-23T01:17:20.223Z,41.17
2019-01-23T01:20:02.314Z,36.83
2019-01-23T01:22:44.311Z,40.50
2019-01-23T01:25:26.380Z,36.17
2019-01-23T01:27:56.588Z,42.43
2019-01-23T01:30:45.865Z,40.43
2019-01-23T01:33:48.152Z,41.90
2019-01-23T01:36:29.979Z,39.80
2019-01-23T01:39:12.622Z,42.63
2019-01-23T01:41:54.922Z,40.83
2019-01-23T01:50:08.573Z,40.50
2019-01-23T01:52:51.082Z,37.30
2019-01-23T01:55:33.089Z,41.53
2019-01-23T01:58:15.151Z,41.77
2019-01-23T02:00:59.184Z,41.13
2019-01-23T02:03:40.979Z,40.70
2019-01-23T02:06:24.066Z,39.50
2019-01-23T02:09:06.218Z,36.73
2019-01-23T02:11:48.966Z,39.40
2019-01-23T02:14:31.948Z,39.40
2019-01-23T02:17:13.783Z,40.00
2019-01-23T02:19:56.080Z,37.77
2019-01-23T02:22:37.582Z,38.50
2019-01-23T02:25:19.569Z,36.57
2019-01-23T02:28:02.334Z,39.60
2019-01-23T02:30:44.401Z,38.63
2019-01-23T02:33:26.274Z,32.43
2019-01-23T02:36:08.337Z,33.50
2019-01-23T02:38:49.890Z,33.73
2019-01-23T02:41:31.902Z,31.20
2019-01-23T02:44:13.733Z,30.67
2019-01-23T02:46:56.117Z,30.17
2019-01-23T02:49:38.019Z,29.43
2019-01-23T02:52:20.490Z,28.33
2019-01-23T02:55:02.378Z,25.87
2019-01-23T02:57:44.721Z,27.53
2019-01-23T03:00:26.441Z,25.80
2019-01-23T03:03:08.364Z,24.53
2019-01-23T03:05:50.251Z,27.70
2019-01-23T03:08:31.976Z,27.07
2019-01-23T03:11:14.380Z,27.60
2019-01-23T03:13:56.746Z,30.23
2019-01-23T03:16:38.679Z,28.30
2019-01-23T03:19:20.747Z,29.70
2019-01-23T03:22:02.994Z,28.23
2019-01-23T03:24:45.267Z,29.77
2019-01-23T03:27:27.167Z,25.53
2019-01-23T03:30:09.130Z,28.67
2019-01-23T03:32:51.448Z,28.20
2019-01-23T03:35:35.526Z,29.80
2019-01-23T03:38:18.427Z,31.37
2019-01-23T03:41:00.585Z,29.50
2019-01-23T03:43:42.565Z,28.90
2019-01-23T03:46:24.449Z,31.17
2019-01-23T03:49:06.297Z,31.57
2019-01-23T03:51:48.419Z,30.33
2019-01-23T03:54:18.666Z,29.60
2019-01-23T03:57:09.034Z,29.23
2019-01-23T03:59:51.003Z,29.63
2019-01-23T04:02:33.368Z,32.03
2019-01-23T04:05:15.681Z,31.20
2019-01-23T04:07:57.629Z,32.70
2019-01-23T04:10:39.562Z,34.17
2019-01-23T04:13:21.663Z,32.03
2019-01-23T04:16:04.288Z,33.23
2019-01-23T04:18:46.147Z,30.03
2019-01-23T04:21:28.082Z,33.77
2019-01-23T04:24:10.137Z,31.80
2019-01-23T04:26:52.360Z,31.77
2019-01-23T04:29:39.514Z,31.73
2019-01-23T04:32:16.988Z,32.40
2019-01-23T04:34:58.862Z,32.23
2019-01-23T04:37:42.932Z,31.53
2019-01-23T04:40:25.305Z,32.50
2019-01-23T04:43:07.192Z,32.03
2019-01-23T04:45:49.445Z,32.23
2019-01-23T04:48:31.420Z,28.07
2019-01-23T04:54:56.194Z,30.30
2019-01-23T04:57:38.126Z,27.70
2019-01-23T05:00:23.542Z,29.83
2019-01-23T05:03:05.366Z,32.67
2019-01-23T05:05:47.197Z,29.70
2019-01-23T05:08:29.083Z,30.57
2019-01-23T05:11:11.300Z,32.20
2019-01-23T05:13:53.102Z,30.83
2019-01-23T05:16:35.344Z,32.47
2019-01-23T05:19:17.589Z,31.50
2019-01-23T05:21:59.213Z,31.97
2019-01-23T05:24:41.176Z,32.83
2019-01-23T05:27:24.627Z,32.07
2019-01-23T05:30:05.990Z,35.60
2019-01-23T05:32:47.564Z,33.80
2019-01-23T05:35:30.501Z,36.37
2019-01-23T05:38:12.132Z,33.60
2019-01-23T05:40:54.192Z,35.87
2019-01-23T05:43:36.179Z,34.57
2019-01-23T05:46:17.722Z,33.03
2019-01-23T05:48:59.796Z,35.07
2019-01-23T05:51:42.299Z,35.07
2019-01-23T05:54:24.116Z,36.30
2019-01-23T05:57:06.030Z,32.77
2019-01-23T05:59:48.215Z,34.00
2019-01-23T06:02:30.111Z,37.47
2019-01-23T06:05:11.985Z,35.13
2019-01-23T06:07:54.668Z,33.93
2019-01-23T06:10:37.554Z,34.30
2019-01-23T06:13:07.675Z,34.40
2019-01-23T06:15:56.800Z,32.73
2019-01-23T06:18:39.159Z,35.37
2019-01-23T06:21:09.361Z,33.87
2019-01-23T06:23:58.604Z,32.13
2019-01-23T06:29:21.441Z,34.33
2019-01-23T06:32:03.210Z,35.60
2019-01-23T06:34:44.647Z,35.17
2019-01-23T06:37:26.585Z,34.07
2019-01-23T06:40:08.243Z,35.73
2019-01-23T06:42:49.636Z,36.73
2019-01-23T06:45:31.331Z,34.60
2019-01-23T06:48:13.740Z,33.73
2019-01-23T06:50:55.901Z,34.80
2019-01-23T06:53:37.631Z,36.10
2019-01-23T06:56:19.941Z,30.80
2019-01-23T06:59:02.208Z,31.63
2019-01-23T07:01:43.703Z,34.20
2019-01-23T07:04:25.760Z,33.87
2019-01-23T07:07:07.500Z,37.23
2019-01-23T07:09:49.444Z,33.00
2019-01-23T07:12:31.556Z,34.30
2019-01-23T07:15:13.242Z,35.30
2019-01-23T07:17:56.151Z,34.40
2019-01-23T07:20:37.776Z,36.50
2019-01-23T07:23:20.065Z,35.07
2019-01-23T07:26:01.884Z,33.90
2019-01-23T07:28:49.128Z,37.70
2019-01-23T07:31:27.803Z,37.87
2019-01-23T07:34:09.554Z,40.87
2019-01-23T07:36:52.756Z,37.73
2019-01-23T07:39:34.592Z,34.17
2019-01-23T07:42:16.361Z,37.20
2019-01-23T07:44:58.211Z,39.17
2019-01-23T07:47:40.505Z,37.23
2019-01-23T07:50:23.403Z,37.07
2019-01-23T07:53:05.124Z,36.30
2019-01-23T07:55:47.093Z,36.60
2019-01-23T07:58:29.333Z,37.77
2019-01-23T08:01:10.958Z,39.27
2019-01-23T08:03:52.302Z,37.47
2019-01-23T08:06:34.471Z,36.53
2019-01-23T08:09:16.843Z,39.53
2019-01-23T08:11:58.701Z,36.63
2019-01-23T08:14:41.964Z,38.40
2019-01-23T08:17:24.694Z,36.83
2019-01-23T08:20:06.623Z,36.23
2019-01-23T08:22:49.790Z,36.87
2019-01-23T08:25:31.417Z,35.60
2019-01-23T08:28:13.273Z,37.87
2019-01-23T08:30:55.253Z,38.37
2019-01-23T08:33:37.130Z,35.50
2019-01-23T08:36:19.292Z,34.23
2019-01-23T08:39:01.300Z,36.80
2019-01-23T08:41:43.695Z,33.57
2019-01-23T08:44:25.702Z,34.67
2019-01-23T08:47:07.593Z,35.87
2019-01-23T08:49:49.084Z,38.00
2019-01-23T08:52:31.097Z,35.20
2019-01-23T08:55:13.277Z,33.77
2019-01-23T08:57:55.588Z,35.77
2019-01-23T09:00:37.810Z,36.53
2019-01-23T09:03:19.611Z,39.57
2019-01-23T09:06:01.297Z,37.33
2019-01-23T09:08:43.146Z,32.30
2019-01-23T09:11:25.377Z,36.77
2019-01-23T09:14:07.516Z,37.23
2019-01-23T09:16:49.396Z,37.57
2019-01-23T09:19:31.427Z,37.33
2019-01-23T09:22:14.003Z,37.50
2019-01-23T09:24:55.566Z,37.37
2019-01-23T09:27:37.809Z,36.33
2019-01-23T09:30:20.071Z,38.70
2019-01-23T09:33:02.620Z,36.33
2019-01-23T09:35:44.002Z,39.63
2019-01-23T09:38:26.115Z,36.97
2019-01-23T09:41:08.683Z,38.63
2019-01-23T09:43:51.273Z,38.37
2019-01-23T09:46:33.561Z,35.07
2019-01-23T09:49:15.151Z,37.70
2019-01-23T09:51:56.538Z,33.90
2019-01-23T09:54:38.512Z,38.93
2019-01-23T09:57:20.717Z,39.67
2019-01-23T10:00:02.351Z,37.83
2019-01-23T10:02:44.312Z,35.03
2019-01-23T10:05:26.020Z,39.13
2019-01-23T10:08:07.808Z,37.17
2019-01-23T10:10:49.614Z,37.87
2019-01-23T10:13:31.121Z,37.33
2019-01-23T10:16:15.153Z,37.47
2019-01-23T10:18:56.721Z,38.83
2019-01-23T10:21:38.285Z,36.10
2019-01-23T10:24:20.597Z,38.20
2019-01-23T10:27:02.867Z,39.10
2019-01-23T10:29:44.681Z,40.17
2019-01-23T10:32:26.787Z,36.97
2019-01-23T10:35:08.778Z,39.60
2019-01-23T10:37:50.533Z,38.07
2019-01-23T10:40:32.959Z,43.60
2019-01-23T10:43:15.078Z,39.03
2019-01-23T10:45:57.399Z,37.27
2019-01-23T10:48:38.128Z,36.77
2019-01-23T10:51:20.454Z,38.73
2019-01-23T10:54:01.968Z,40.13
2019-01-23T10:56:44.222Z,39.47
2019-01-23T10:59:26.137Z,36.90
2019-01-23T11:02:08.579Z,39.73
2019-01-23T11:04:49.992Z,40.03
2019-01-23T11:07:32.634Z,40.27
2019-01-23T11:10:14.724Z,40.43
2019-01-23T11:12:56.784Z,40.00
2019-01-23T11:15:39.136Z,39.97
2019-01-23T11:18:20.638Z,38.03
2019-01-23T11:21:02.293Z,41.73
2019-01-23T11:23:44.310Z,41.30
2019-01-23T11:26:26.365Z,41.67
2019-01-23T11:29:08.199Z,41.77
2019-01-23T11:31:50.094Z,42.30
2019-01-23T11:34:32.109Z,44.07
2019-01-23T11:37:14.109Z,43.03
2019-01-23T11:39:57.830Z,43.83
2019-01-23T11:42:39.798Z,46.43
2019-01-23T11:45:21.606Z,44.47
2019-01-23T11:48:03.818Z,46.20
2019-01-23T11:50:45.559Z,42.53
2019-01-23T11:53:27.668Z,46.80
2019-01-23T11:56:09.458Z,44.53
2019-01-23T11:58:50.918Z,46.00
2019-01-23T12:01:32.823Z,49.97
2019-01-23T12:04:15.536Z,48.77
2019-01-23T12:06:45.680Z,47.17
2019-01-23T12:12:35.813Z,48.17
2019-01-23T12:15:17.906Z,49.93
2019-01-23T12:17:59.804Z,49.50
2019-01-23T12:20:41.674Z,48.23
2019-01-23T12:23:23.530Z,50.33
2019-01-23T12:26:12.559Z,49.83
2019-01-23T12:29:01.852Z,50.23
2019-01-23T12:31:43.627Z,47.77
2019-01-23T12:34:25.840Z,48.40
2019-01-23T12:37:07.456Z,46.63
2019-01-23T12:39:49.480Z,49.13
2019-01-23T12:42:31.321Z,47.83
2019-01-23T12:45:13.279Z,48.43
2019-01-23T12:47:55.062Z,52.20
2019-01-23T12:50:36.956Z,50.47
2019-01-23T12:53:19.833Z,57.43
2019-01-23T12:55:50.055Z,52.83
2019-01-23T12:58:33.159Z,51.53
2019-01-23T13:01:15.748Z,55.63
2019-01-23T13:03:57.468Z,53.77
2019-01-23T13:06:39.191Z,54.53
2019-01-23T13:09:21.076Z,50.17
2019-01-23T13:12:03.294Z,51.53
2019-01-23T13:17:41.644Z,53.77
2019-01-23T13:20:24.658Z,56.13
2019-01-23T13:23:07.826Z,56.97
2019-01-23T13:25:39.071Z,56.03
2019-01-23T13:28:28.193Z,58.63
2019-01-23T13:30:58.308Z,59.40
2019-01-23T13:33:28.394Z,52.40
2019-01-23T13:36:10.644Z,55.83
2019-01-23T13:38:52.618Z,59.53
2019-01-23T13:41:22.871Z,56.43
2019-01-23T13:44:12.325Z,55.10
2019-01-23T13:47:14.302Z,56.57
2019-01-23T13:49:55.984Z,55.73
2019-01-23T13:52:37.602Z,59.97
2019-01-23T13:55:19.313Z,56.43
2019-01-23T13:58:01.159Z,55.83
2019-01-23T14:00:42.735Z,57.17
2019-01-23T14:03:26.509Z,56.77
2019-01-23T14:06:08.351Z,58.33
2019-01-23T14:08:50.180Z,59.30
2019-01-23T14:11:33.014Z,56.97
2019-01-23T14:14:15.158Z,60.87
2019-01-23T14:16:59.379Z,56.40
2019-01-23T14:19:41.889Z,57.43
2019-01-23T14:22:23.374Z,56.67
2019-01-23T14:25:05.537Z,53.57
2019-01-23T14:27:47.854Z,55.60
2019-01-23T14:30:29.869Z,54.23
2019-01-23T14:33:11.672Z,57.27
2019-01-23T14:35:54.736Z,53.77
2019-01-23T14:38:36.467Z,54.17
2019-01-23T14:41:18.222Z,55.17
2019-01-23T14:44:01.301Z,52.17
2019-01-23T14:46:42.933Z,56.60
2019-01-23T14:49:26.213Z,55.50
2019-01-23T14:52:07.780Z,52.53
2019-01-23T14:54:49.936Z,53.43
2019-01-23T14:57:31.753Z,54.77
2019-01-23T15:00:13.860Z,54.43
2019-01-23T15:02:56.803Z,57.17
2019-01-23T15:05:38.366Z,58.63
2019-01-23T15:08:19.955Z,58.47
2019-01-23T15:11:02.095Z,63.10
2019-01-23T15:13:45.260Z,57.67
2019-01-23T15:16:27.163Z,61.17
2019-01-23T15:19:09.094Z,60.50
2019-01-23T15:21:51.931Z,60.17
2019-01-23T15:24:33.908Z,59.13
2019-01-23T15:27:19.285Z,60.87
2019-01-23T15:30:01.309Z,65.03
2019-01-23T15:32:43.163Z,59.93
2019-01-23T15:35:25.093Z,60.17
2019-01-23T15:38:07.213Z,61.37
2019-01-23T15:40:48.822Z,63.10
2019-01-23T15:43:31.025Z,62.77
2019-01-23T15:46:15.273Z,61.13
2019-01-23T15:48:56.897Z,65.30
2019-01-23T15:51:38.816Z,62.27
2019-01-23T15:54:08.861Z,62.83
2019-01-23T15:56:58.047Z,65.93
2019-01-23T15:59:39.910Z,68.27
2019-01-23T16:02:24.471Z,66.73
2019-01-23T16:05:04.891Z,67.10
2019-01-23T16:07:47.085Z,63.90
2019-01-23T16:10:22.742Z,64.03
2019-01-23T16:13:11.934Z,65.70
2019-01-23T16:15:53.720Z,67.33
2019-01-23T16:18:36.044Z,68.67
2019-01-23T16:21:17.677Z,73.83
2019-01-23T16:23:59.984Z,71.60
2019-01-23T16:26:42.238Z,69.63
2019-01-23T16:29:24.140Z,71.53
2019-01-23T16:32:05.989Z,75.77
2019-01-23T16:34:49.166Z,72.30
2019-01-23T16:37:31.201Z,74.43
2019-01-23T16:40:13.361Z,71.60
2019-01-23T16:42:55.783Z,76.30
2019-01-23T16:45:38.084Z,75.33
2019-01-23T16:48:20.078Z,72.47
2019-01-23T16:51:02.648Z,82.17
2019-01-23T16:53:44.252Z,78.70
2019-01-23T16:56:26.219Z,72.27
2019-01-23T16:59:08.133Z,73.73
2019-01-23T17:01:49.865Z,75.20
2019-01-23T17:04:32.078Z,72.63
2019-01-23T17:07:13.801Z,76.57
2019-01-23T17:09:56.120Z,74.40
2019-01-23T17:12:37.646Z,75.17
2019-01-23T17:15:20.034Z,74.57
2019-01-23T17:18:01.953Z,70.40
2019-01-23T17:20:44.699Z,73.90
2019-01-23T17:23:26.709Z,75.20
2019-01-23T17:26:08.969Z,72.07
2019-01-23T17:28:51.024Z,70.53
2019-01-23T17:31:33.390Z,73.17
2019-01-23T17:34:15.459Z,76.60
2019-01-23T17:36:57.228Z,81.10
2019-01-23T17:39:39.196Z,74.63
2019-01-23T17:42:21.443Z,78.60
2019-01-23T17:45:03.365Z,73.77
2019-01-23T17:47:45.732Z,73.50
2019-01-23T17:50:27.617Z,74.93
2019-01-23T17:53:10.049Z,77.60
2019-01-23T17:55:51.977Z,79.20
2019-01-23T17:58:34.167Z,77.83
2019-01-23T18:01:15.914Z,75.97
2019-01-23T18:03:58.281Z,77.90
2019-01-23T18:06:40.465Z,76.83
2019-01-23T18:09:22.927Z,79.03
2019-01-23T18:12:05.161Z,75.20
2019-01-23T18:14:49.182Z,78.70
2019-01-23T18:17:31.720Z,82.23
2019-01-23T18:20:14.075Z,81.83
2019-01-23T18:22:56.250Z,78.80
2019-01-23T18:25:39.163Z,84.93
2019-01-23T18:28:20.979Z,81.57
2019-01-23T18:31:03.076Z,81.77
2019-01-23T18:33:44.913Z,91.50
2019-01-23T18:36:26.992Z,85.23
2019-01-23T18:39:09.114Z,81.20
2019-01-23T18:41:50.921Z,80.47
2019-01-23T18:44:32.885Z,85.50
2019-01-23T18:47:14.841Z,83.67
2019-01-23T18:49:56.769Z,85.80
2019-01-23T18:52:38.469Z,86.20
2019-01-23T18:55:20.437Z,86.30
2019-01-23T18:58:02.909Z,85.67
2019-01-23T19:00:44.641Z,83.80
2019-01-23T19:03:26.097Z,81.17
2019-01-23T19:05:56.277Z,85.30
2019-01-23T19:08:47.460Z,83.43
2019-01-23T19:11:29.226Z,84.87
2019-01-23T19:13:59.403Z,81.03
2019-01-23T19:17:00.790Z,87.00
2019-01-23T19:19:51.856Z,94.63
2019-01-23T19:22:34.014Z,93.00
2019-01-23T19:25:16.077Z,93.40
2019-01-23T19:27:58.106Z,86.93
2019-01-23T19:30:39.969Z,86.87
2019-01-23T19:33:21.747Z,89.77
2019-01-23T19:36:04.029Z,88.60
2019-01-23T19:38:46.086Z,88.63
2019-01-23T19:41:28.237Z,91.07
2019-01-23T19:44:10.206Z,86.73
2019-01-23T19:46:51.982Z,86.67
2019-01-23T19:49:34.880Z,88.83
2019-01-23T19:52:16.798Z,88.33
2019-01-23T19:54:58.864Z,85.80
2019-01-23T19:57:41.215Z,81.63
2019-01-23T20:00:23.163Z,82.83
2019-01-23T20:03:05.534Z,88.03
2019-01-23T20:05:47.587Z,84.10
2019-01-23T20:08:30.493Z,83.33
2019-01-23T20:11:12.320Z,79.37
2019-01-23T20:13:56.625Z,84.33
2019-01-23T20:16:38.518Z,80.60
2019-01-23T20:19:20.742Z,79.30
2019-01-23T20:22:02.923Z,89.90
2019-01-23T20:24:45.081Z,86.50
2019-01-23T20:27:26.940Z,76.90
2019-01-23T20:30:08.737Z,80.03
2019-01-23T20:32:50.767Z,80.40
2019-01-23T20:35:32.949Z,79.47
2019-01-23T20:38:15.884Z,76.90
2019-01-23T20:40:58.124Z,79.57
2019-01-23T20:43:39.838Z,77.53
2019-01-23T20:46:21.582Z,78.97
2019-01-23T20:49:04.903Z,75.90
2019-01-23T20:51:46.925Z,77.13
2019-01-23T20:54:29.122Z,75.60
2019-01-23T20:57:11.077Z,78.00
2019-01-23T20:59:54.124Z,80.60
2019-01-23T21:02:36.029Z,79.53
2019-01-23T21:05:18.089Z,82.67
2019-01-23T21:08:00.106Z,77.57
2019-01-23T21:10:42.246Z,77.17
2019-01-23T21:13:24.513Z,77.70
2019-01-23T21:16:07.430Z,78.63
2019-01-23T21:18:49.686Z,78.23
2019-01-23T21:21:31.126Z,77.80
2019-01-23T21:24:13.181Z,84.33
2019-01-23T21:26:43.477Z,87.13
2019-01-23T21:32:39.120Z,85.37
2019-01-23T21:35:20.903Z,78.90
2019-01-23T21:38:03.517Z,81.10
2019-01-23T21:40:45.198Z,75.37
2019-01-23T21:43:27.027Z,76.17
2019-01-23T21:46:08.810Z,79.27
2019-01-23T21:48:51.773Z,77.37
2019-01-23T21:51:33.514Z,83.33
2019-01-23T21:54:15.721Z,78.67
2019-01-23T21:56:57.891Z,82.47
2019-01-23T21:59:39.885Z,77.10
2019-01-23T22:02:22.199Z,77.67
2019-01-23T22:05:03.704Z,77.90
2019-01-23T22:07:45.980Z,77.27
2019-01-23T22:10:27.946Z,76.37
2019-01-23T22:13:09.698Z,79.87
2019-01-23T22:15:51.548Z,70.83
2019-01-23T22:18:33.905Z,77.37
2019-01-23T22:21:15.462Z,80.17
2019-01-23T22:23:57.454Z,75.60
2019-01-23T22:26:41.335Z,77.47
2019-01-23T22:29:23.280Z,73.43
2019-01-23T22:32:05.240Z,77.40
2019-01-23T22:34:48.654Z,75.47
2019-01-23T22:37:30.576Z,73.30
2019-01-23T22:40:12.348Z,76.30
2019-01-23T22:42:54.280Z,74.90
2019-01-23T22:45:36.470Z,77.47
2019-01-23T22:48:18.311Z,73.27
2019-01-23T22:51:00.427Z,71.90
2019-01-23T22:53:42.378Z,77.93
2019-01-23T22:56:24.271Z,71.53
2019-01-23T22:59:05.931Z,79.47
2019-01-23T23:01:47.929Z,73.83
2019-01-23T23:04:29.447Z,78.87
2019-01-23T23:07:10.947Z,77.20
2019-01-23T23:09:53.086Z,74.37
2019-01-23T23:12:35.108Z,72.27
2019-01-23T23:15:17.470Z,73.53
2019-01-23T23:17:59.437Z,69.13
2019-01-23T23:20:41.457Z,72.87
2019-01-23T23:23:23.735Z,67.37
2019-01-23T23:26:05.618Z,68.53
2019-01-23T23:28:48.843Z,67.57
2019-01-23T23:31:31.628Z,68.07
2019-01-23T23:34:13.689Z,68.60
2019-01-23T23:36:55.544Z,68.60
2019-01-23T23:39:38.399Z,66.33
2019-01-23T23:42:20.261Z,67.73
2019-01-23T23:45:02.646Z,68.17
2019-01-23T23:47:44.723Z,67.27
2019-01-23T23:50:27.616Z,71.43
2019-01-23T23:53:09.035Z,75.53
2019-01-23T23:55:50.955Z,68.47
2019-01-23T23:58:32.983Z,68.83
